createdAt,value
2018-02-14T00:02:01.710Z,20.07
2018-02-14T00:04:29.045Z,20.03
2018-02-14T00:06:56.430Z,20.06
2018-02-14T00:09:23.784Z,20.06
2018-02-14T00:11:51.178Z,19.88
2018-02-14T00:14:18.561Z,20.01
2018-02-14T00:16:45.904Z,20.02
2018-02-14T00:19:13.279Z,19.93
2018-02-14T00:21:40.670Z,19.96
2018-02-14T00:24:08.023Z,19.98
2018-02-14T00:26:35.418Z,19.99
2018-02-14T00:29:02.773Z,20.05
2018-02-14T00:31:30.108Z,20.00
2018-02-14T00:33:57.455Z,19.98
2018-02-14T00:36:24.869Z,19.94
2018-02-14T00:38:52.238Z,20.04
2018-02-14T00:41:19.623Z,20.00
2018-02-14T00:43:47.018Z,19.76
2018-02-14T00:46:14.417Z,19.98
2018-02-14T00:48:41.807Z,19.94
2018-02-14T00:51:09.142Z,19.92
2018-02-14T00:53:36.498Z,19.82
2018-02-14T00:56:03.833Z,19.98
2018-02-14T00:58:31.189Z,19.95
2018-02-14T01:00:58.531Z,19.88
2018-02-14T01:03:25.915Z,19.92
2018-02-14T01:05:53.294Z,19.91
2018-02-14T01:08:20.629Z,19.90
2018-02-14T01:10:47.978Z,19.77
2018-02-14T01:13:15.354Z,19.90
2018-02-14T01:15:42.740Z,19.85
2018-02-14T01:18:10.138Z,19.87
2018-02-14T01:20:37.537Z,19.78
2018-02-14T01:23:04.889Z,19.79
2018-02-14T01:25:32.336Z,19.87
2018-02-14T01:27:59.694Z,19.75
2018-02-14T01:30:27.062Z,19.83
2018-02-14T01:32:54.402Z,19.83
2018-02-14T01:35:21.741Z,19.87
2018-02-14T01:37:49.110Z,19.87
2018-02-14T01:40:16.476Z,19.89
2018-02-14T01:42:43.941Z,19.88
2018-02-14T01:45:11.294Z,19.76
2018-02-14T01:47:38.710Z,19.77
2018-02-14T01:50:06.085Z,19.88
2018-02-14T01:52:33.430Z,19.81
2018-02-14T01:55:00.806Z,19.75
2018-02-14T01:57:28.994Z,19.73
2018-02-14T01:59:56.358Z,19.87
2018-02-14T02:02:23.694Z,19.84
2018-02-14T02:04:51.078Z,20.01
2018-02-14T02:07:18.427Z,19.87
2018-02-14T02:09:45.757Z,19.69
2018-02-14T02:12:13.114Z,19.58
2018-02-14T02:14:40.474Z,19.55
2018-02-14T02:17:07.863Z,19.57
2018-02-14T02:19:35.195Z,19.50
2018-02-14T02:22:02.533Z,19.67
2018-02-14T02:24:29.886Z,19.67
2018-02-14T02:26:57.228Z,19.52
2018-02-14T02:29:24.614Z,19.78
2018-02-14T02:31:51.970Z,19.72
2018-02-14T02:34:19.320Z,19.78
2018-02-14T02:36:46.666Z,19.68
2018-02-14T02:39:14.090Z,19.95
2018-02-14T02:41:41.435Z,19.90
2018-02-14T02:44:08.836Z,20.00
2018-02-14T02:46:36.232Z,19.95
2018-02-14T02:49:03.570Z,19.76
2018-02-14T02:51:30.980Z,20.11
2018-02-14T02:53:58.325Z,20.07
2018-02-14T02:56:25.701Z,20.04
2018-02-14T02:58:53.050Z,20.20
2018-02-14T03:01:20.413Z,20.10
2018-02-14T03:03:47.789Z,20.13
2018-02-14T03:06:15.126Z,20.23
2018-02-14T03:08:42.453Z,20.25
2018-02-14T03:11:09.826Z,20.28
2018-02-14T03:13:37.178Z,20.30
2018-02-14T03:16:04.522Z,20.02
2018-02-14T03:18:31.859Z,20.28
2018-02-14T03:20:59.194Z,20.33
2018-02-14T03:23:26.614Z,20.33
2018-02-14T03:25:53.943Z,20.25
2018-02-14T03:28:21.287Z,20.32
2018-02-14T03:30:48.621Z,20.27
2018-02-14T03:33:15.994Z,20.38
2018-02-14T03:35:43.341Z,20.37
2018-02-14T03:38:10.682Z,20.39
2018-02-14T03:40:38.017Z,20.33
2018-02-14T03:43:05.391Z,20.27
2018-02-14T03:45:32.781Z,20.24
2018-02-14T03:48:00.158Z,20.40
2018-02-14T03:50:27.538Z,20.45
2018-02-14T03:52:54.878Z,20.37
2018-02-14T03:55:22.472Z,20.43
2018-02-14T03:57:49.908Z,20.37
2018-02-14T04:00:17.383Z,20.38
2018-02-14T04:02:44.728Z,20.46
2018-02-14T04:05:12.098Z,20.35
2018-02-14T04:07:39.479Z,20.46
2018-02-14T04:10:06.886Z,20.45
2018-02-14T04:12:34.256Z,20.52
2018-02-14T04:15:01.602Z,20.50
2018-02-14T04:17:29.050Z,20.49
2018-02-14T04:19:56.442Z,20.46
2018-02-14T04:22:23.838Z,20.47
2018-02-14T04:24:51.183Z,20.59
2018-02-14T04:27:18.564Z,20.55
2018-02-14T04:29:45.945Z,20.49
2018-02-14T04:32:13.286Z,20.49
2018-02-14T04:34:40.685Z,20.58
2018-02-14T04:37:08.053Z,20.57
2018-02-14T04:39:35.481Z,20.46
2018-02-14T04:42:02.847Z,20.63
2018-02-14T04:44:30.213Z,20.65
2018-02-14T04:46:57.769Z,20.62
2018-02-14T04:49:25.110Z,20.63
2018-02-14T04:51:52.453Z,20.65
2018-02-14T04:54:19.846Z,20.67
2018-02-14T04:56:47.246Z,20.74
2018-02-14T04:59:14.578Z,20.60
2018-02-14T05:01:41.958Z,20.80
2018-02-14T05:04:09.353Z,20.84
2018-02-14T05:06:36.739Z,20.89
2018-02-14T05:09:04.118Z,20.93
2018-02-14T05:11:31.461Z,20.78
2018-02-14T05:13:58.848Z,20.94
2018-02-14T05:16:26.203Z,20.87
2018-02-14T05:18:53.578Z,20.96
2018-02-14T05:21:20.929Z,20.90
2018-02-14T05:23:48.262Z,20.99
2018-02-14T05:26:15.608Z,21.06
2018-02-14T05:28:42.955Z,20.80
2018-02-14T05:31:10.306Z,20.96
2018-02-14T05:33:37.650Z,21.06
2018-02-14T05:36:05.033Z,21.06
2018-02-14T05:38:32.468Z,21.13
2018-02-14T05:40:59.807Z,21.12
2018-02-14T05:43:27.146Z,21.09
2018-02-14T05:45:54.546Z,21.27
2018-02-14T05:48:21.890Z,21.18
2018-02-14T05:50:49.270Z,21.21
2018-02-14T05:53:16.689Z,21.30
2018-02-14T05:55:44.099Z,21.24
2018-02-14T05:58:11.450Z,21.22
2018-02-14T06:00:38.888Z,21.34
2018-02-14T06:03:06.264Z,21.42
2018-02-14T06:05:33.629Z,21.37
2018-02-14T06:08:01.030Z,21.09
2018-02-14T06:10:28.380Z,21.52
2018-02-14T06:12:55.733Z,21.43
2018-02-14T06:15:23.129Z,21.29
2018-02-14T06:17:50.542Z,21.43
2018-02-14T06:20:17.902Z,21.42
2018-02-14T06:22:45.240Z,21.51
2018-02-14T06:25:12.610Z,21.41
2018-02-14T06:27:39.986Z,21.47
2018-02-14T06:30:10.712Z,21.58
2018-02-14T06:32:38.134Z,21.58
2018-02-14T06:35:05.601Z,21.50
2018-02-14T06:37:33.053Z,21.58
2018-02-14T06:40:00.483Z,21.73
2018-02-14T06:42:27.925Z,21.49
2018-02-14T06:44:55.525Z,21.63
2018-02-14T06:47:23.055Z,21.76
2018-02-14T06:49:50.466Z,21.72
2018-02-14T06:52:18.076Z,21.78
2018-02-14T06:54:45.509Z,21.60
2018-02-14T06:57:12.947Z,21.72
2018-02-14T06:59:40.366Z,21.86
2018-02-14T07:02:07.830Z,21.64
2018-02-14T07:04:35.240Z,21.78
2018-02-14T07:07:02.800Z,21.57
2018-02-14T07:09:30.917Z,21.51
2018-02-14T07:12:00.524Z,21.72
2018-02-14T07:14:29.681Z,21.79
2018-02-14T07:16:59.703Z,21.87
2018-02-14T07:19:28.654Z,21.73
2018-02-14T07:21:57.434Z,21.62
2018-02-14T07:24:25.284Z,21.59
2018-02-14T07:26:52.886Z,21.36
2018-02-14T07:29:20.858Z,21.60
2018-02-14T07:31:49.604Z,22.18
2018-02-14T07:34:18.272Z,22.15
2018-02-14T07:36:47.243Z,21.91
2018-02-14T07:39:14.862Z,22.27
2018-02-14T07:41:43.448Z,22.24
2018-02-14T07:44:11.413Z,21.94
2018-02-14T07:46:41.295Z,22.26
2018-02-14T07:49:08.847Z,22.46
2018-02-14T07:51:36.415Z,22.19
2018-02-14T07:54:07.243Z,22.08
2018-02-14T07:56:34.872Z,22.45
2018-02-14T07:59:02.542Z,22.42
2018-02-14T08:01:30.163Z,22.42
2018-02-14T08:03:57.599Z,22.56
2018-02-14T08:06:25.023Z,22.51
2018-02-14T08:08:53.213Z,22.30
2018-02-14T08:11:20.583Z,22.44
2018-02-14T08:13:47.975Z,22.12
2018-02-14T08:16:15.407Z,22.47
2018-02-14T08:18:42.833Z,22.46
2018-02-14T08:21:10.323Z,22.59
2018-02-14T08:23:37.972Z,21.94
2018-02-14T08:26:05.423Z,22.48
2018-02-14T08:28:33.067Z,22.73
2018-02-14T08:31:00.525Z,22.65
2018-02-14T08:33:27.911Z,22.20
2018-02-14T08:35:55.354Z,22.56
2018-02-14T08:38:22.804Z,22.69
2018-02-14T08:40:50.311Z,22.73
2018-02-14T08:43:17.956Z,22.24
2018-02-14T08:45:45.412Z,22.56
2018-02-14T08:48:13.176Z,22.86
2018-02-14T08:50:41.440Z,22.44
2018-02-14T08:53:08.887Z,23.03
2018-02-14T08:55:36.406Z,22.90
2018-02-14T08:58:03.973Z,22.78
2018-02-14T09:00:31.684Z,22.86
2018-02-14T09:02:59.130Z,22.80
2018-02-14T09:05:26.536Z,22.90
2018-02-14T09:07:54.364Z,22.82
2018-02-14T09:10:21.761Z,22.76
2018-02-14T09:12:49.200Z,22.92
2018-02-14T09:15:16.624Z,22.71
2018-02-14T09:17:44.111Z,22.84
2018-02-14T09:20:11.570Z,22.71
2018-02-14T09:22:38.970Z,22.78
2018-02-14T09:25:06.452Z,22.83
2018-02-14T09:27:33.912Z,22.50
2018-02-14T09:30:02.873Z,22.73
2018-02-14T09:32:30.346Z,22.82
2018-02-14T09:34:57.743Z,22.70
2018-02-14T09:37:25.249Z,22.74
2018-02-14T09:39:52.696Z,22.59
2018-02-14T09:42:20.150Z,22.58
2018-02-14T09:44:47.681Z,22.31
2018-02-14T09:47:15.139Z,22.85
2018-02-14T09:49:42.567Z,22.57
2018-02-14T09:52:09.953Z,23.02
2018-02-14T09:54:37.462Z,22.99
2018-02-14T09:57:04.838Z,22.93
2018-02-14T09:59:32.301Z,22.74
2018-02-14T10:01:59.712Z,22.82
2018-02-14T10:04:27.066Z,23.09
2018-02-14T10:06:54.504Z,22.87
2018-02-14T10:09:21.922Z,22.92
2018-02-14T10:11:49.360Z,22.56
2018-02-14T10:14:16.798Z,22.76
2018-02-14T10:16:44.214Z,23.10
2018-02-14T10:19:11.656Z,22.33
2018-02-14T10:21:39.478Z,22.73
2018-02-14T10:24:07.040Z,23.09
2018-02-14T10:26:34.566Z,22.77
2018-02-14T10:29:01.979Z,22.27
2018-02-14T10:31:29.362Z,22.85
2018-02-14T10:33:56.943Z,23.05
2018-02-14T10:36:25.188Z,22.73
2018-02-14T10:38:53.136Z,22.78
2018-02-14T10:41:22.079Z,22.36
2018-02-14T10:43:49.630Z,22.83
2018-02-14T10:46:17.030Z,22.79
2018-02-14T10:48:44.507Z,23.03
2018-02-14T10:51:11.887Z,22.60
2018-02-14T10:53:39.365Z,22.78
2018-02-14T10:56:07.366Z,22.71
2018-02-14T10:58:34.883Z,22.84
2018-02-14T11:01:02.574Z,23.15
2018-02-14T11:03:30.038Z,23.04
2018-02-14T11:05:57.423Z,23.21
2018-02-14T11:08:29.060Z,23.02
2018-02-14T11:10:56.504Z,22.76
2018-02-14T11:13:24.356Z,23.15
2018-02-14T11:15:51.874Z,23.19
2018-02-14T11:18:19.319Z,23.20
2018-02-14T11:20:47.505Z,23.39
2018-02-14T11:23:16.269Z,23.09
2018-02-14T11:25:43.793Z,23.02
2018-02-14T11:28:11.159Z,23.32
2018-02-14T11:30:38.705Z,23.16
2018-02-14T11:33:06.144Z,22.99
2018-02-14T11:35:33.591Z,23.04
2018-02-14T11:38:01.171Z,23.14
2018-02-14T11:40:28.616Z,22.82
2018-02-14T11:42:55.990Z,23.33
2018-02-14T11:45:23.433Z,23.34
2018-02-14T11:47:50.881Z,23.21
2018-02-14T11:50:18.251Z,23.41
2018-02-14T11:52:45.805Z,23.34
2018-02-14T11:55:13.255Z,23.51
2018-02-14T11:57:40.700Z,23.10
2018-02-14T12:00:08.118Z,23.27
2018-02-14T12:02:35.538Z,23.12
2018-02-14T12:05:02.970Z,23.46
2018-02-14T12:07:30.475Z,22.99
2018-02-14T12:10:01.779Z,23.47
2018-02-14T12:12:29.364Z,23.04
2018-02-14T12:14:56.741Z,23.19
2018-02-14T12:17:24.184Z,22.98
2018-02-14T12:19:52.551Z,23.51
2018-02-14T12:22:19.990Z,23.42
2018-02-14T12:24:47.516Z,23.50
2018-02-14T12:27:15.017Z,23.26
2018-02-14T12:29:42.610Z,23.36
2018-02-14T12:32:10.060Z,23.34
2018-02-14T12:34:37.464Z,23.29
2018-02-14T12:37:04.928Z,22.91
2018-02-14T12:39:32.563Z,23.47
2018-02-14T12:42:00.108Z,23.36
2018-02-14T12:44:27.535Z,23.11
2018-02-14T12:46:55.192Z,23.33
2018-02-14T12:49:34.132Z,23.43
2018-02-14T12:52:02.773Z,23.40
2018-02-14T12:54:30.752Z,23.14
2018-02-14T12:56:58.175Z,23.47
2018-02-14T12:59:47.018Z,22.92
2018-02-14T13:02:29.985Z,23.29
2018-02-14T13:04:57.938Z,23.11
2018-02-14T13:07:26.022Z,23.27
2018-02-14T13:09:53.967Z,23.36
2018-02-14T13:12:25.630Z,23.42
2018-02-14T13:14:54.662Z,23.22
2018-02-14T13:17:24.049Z,23.42
2018-02-14T13:19:53.042Z,23.27
2018-02-14T13:22:24.141Z,23.43
2018-02-14T13:24:52.509Z,23.64
2018-02-14T13:27:21.504Z,23.47
2018-02-14T13:29:49.541Z,23.39
2018-02-14T13:34:52.021Z,23.33
2018-02-14T13:37:20.060Z,23.34
2018-02-14T13:39:48.230Z,23.29
2018-02-14T13:42:17.173Z,23.04
2018-02-14T13:44:45.404Z,23.46
2018-02-14T13:47:13.391Z,22.99
2018-02-14T13:49:43.606Z,23.46
2018-02-14T13:52:12.625Z,23.48
2018-02-14T13:54:44.292Z,23.31
2018-02-14T13:57:13.133Z,23.03
2018-02-14T13:59:44.091Z,23.16
2018-02-14T14:02:12.226Z,23.03
2018-02-14T14:04:41.720Z,23.18
2018-02-14T14:07:09.693Z,23.23
2018-02-14T14:09:38.111Z,23.57
2018-02-14T14:12:05.953Z,23.06
2018-02-14T14:14:35.813Z,23.49
2018-02-14T14:17:05.628Z,23.40
2018-02-14T14:19:33.146Z,23.54
2018-02-14T14:22:00.973Z,23.27
2018-02-14T14:24:31.274Z,23.40
2018-02-14T14:26:58.793Z,23.62
2018-02-14T14:29:26.624Z,23.61
2018-02-14T14:31:54.272Z,23.07
2018-02-14T14:34:21.937Z,23.24
2018-02-14T14:36:49.573Z,23.44
2018-02-14T14:39:19.220Z,23.60
2018-02-14T14:41:47.539Z,23.47
2018-02-14T14:44:16.790Z,23.08
2018-02-14T14:46:44.299Z,23.38
2018-02-14T14:49:12.777Z,23.34
2018-02-14T14:51:40.387Z,23.29
2018-02-14T14:54:10.855Z,23.71
2018-02-14T14:56:38.411Z,23.23
2018-02-14T14:59:05.832Z,23.42
2018-02-14T15:01:33.322Z,23.61
2018-02-14T15:04:01.118Z,23.43
2018-02-14T15:06:28.557Z,23.37
2018-02-14T15:08:56.123Z,23.28
2018-02-14T15:11:23.583Z,23.15
2018-02-14T15:13:50.978Z,23.34
2018-02-14T15:16:18.518Z,22.93
2018-02-14T15:18:45.951Z,22.66
2018-02-14T15:21:13.329Z,23.40
2018-02-14T15:23:40.715Z,23.18
2018-02-14T15:26:08.290Z,23.28
2018-02-14T15:28:35.672Z,23.32
2018-02-14T15:31:03.279Z,23.23
2018-02-14T15:33:30.776Z,23.27
2018-02-14T15:35:58.225Z,23.21
2018-02-14T15:38:25.590Z,23.20
2018-02-14T15:40:53.109Z,23.13
2018-02-14T15:45:53.909Z,23.05
2018-02-14T15:48:21.263Z,23.29
2018-02-14T15:50:48.709Z,23.12
2018-02-14T15:53:16.437Z,23.03
2018-02-14T15:55:43.819Z,22.96
2018-02-14T15:58:11.360Z,22.99
2018-02-14T16:00:38.715Z,23.06
2018-02-14T16:03:06.081Z,22.91
2018-02-14T16:05:33.500Z,23.03
2018-02-14T16:08:00.862Z,22.90
2018-02-14T16:10:28.271Z,22.79
2018-02-14T16:12:55.637Z,22.76
2018-02-14T16:15:23.053Z,22.84
2018-02-14T16:17:50.568Z,22.69
2018-02-14T16:20:17.971Z,22.50
2018-02-14T16:22:45.367Z,22.79
2018-02-14T16:25:12.764Z,22.80
2018-02-14T16:27:40.175Z,22.47
2018-02-14T16:30:07.575Z,22.78
2018-02-14T16:32:34.945Z,21.83
2018-02-14T16:35:02.436Z,22.64
2018-02-14T16:37:29.846Z,22.56
2018-02-14T16:39:57.263Z,22.64
2018-02-14T16:42:24.636Z,22.57
2018-02-14T16:44:52.028Z,22.48
2018-02-14T16:47:19.384Z,22.47
2018-02-14T16:49:46.795Z,22.54
2018-02-14T16:52:14.179Z,22.36
2018-02-14T16:54:41.722Z,22.54
2018-02-14T16:57:09.146Z,22.24
2018-02-14T16:59:36.508Z,22.17
2018-02-14T17:02:03.851Z,22.27
2018-02-14T17:04:31.267Z,22.44
2018-02-14T17:06:58.633Z,22.36
2018-02-14T17:09:26.061Z,22.40
2018-02-14T17:11:53.414Z,22.16
2018-02-14T17:14:20.832Z,22.24
2018-02-14T17:16:48.195Z,22.15
2018-02-14T17:19:15.550Z,22.23
2018-02-14T17:21:42.944Z,22.02
2018-02-14T17:24:10.395Z,22.12
2018-02-14T17:26:37.753Z,22.19
2018-02-14T17:29:05.147Z,22.10
2018-02-14T17:31:32.534Z,22.10
2018-02-14T17:33:59.883Z,22.09
2018-02-14T17:36:27.330Z,21.53
2018-02-14T17:38:54.681Z,21.97
2018-02-14T17:41:22.034Z,21.91
2018-02-14T17:43:49.460Z,21.99
2018-02-14T17:46:16.823Z,21.83
2018-02-14T17:48:44.242Z,21.86
2018-02-14T17:51:11.615Z,21.91
2018-02-14T17:53:39.043Z,21.69
2018-02-14T17:56:06.466Z,21.66
2018-02-14T17:58:33.897Z,21.72
2018-02-14T18:01:01.253Z,21.76
2018-02-14T18:03:28.655Z,21.76
2018-02-14T18:05:56.052Z,21.75
2018-02-14T18:08:23.435Z,21.65
2018-02-14T18:10:50.824Z,21.73
2018-02-14T18:13:18.182Z,21.71
2018-02-14T18:15:45.638Z,21.65
2018-02-14T18:18:13.029Z,21.66
2018-02-14T18:20:40.468Z,21.78
2018-02-14T18:23:07.831Z,21.71
2018-02-14T18:25:35.266Z,21.80
2018-02-14T18:28:02.622Z,21.81
2018-02-14T18:30:30.028Z,21.83
2018-02-14T18:32:57.439Z,21.57
2018-02-14T18:35:27.670Z,21.75
2018-02-14T18:37:55.025Z,21.80
2018-02-14T18:40:22.494Z,21.76
2018-02-14T18:42:49.914Z,21.74
2018-02-14T18:45:17.287Z,21.72
2018-02-14T18:47:44.633Z,21.80
2018-02-14T18:50:11.988Z,21.58
2018-02-14T18:52:39.393Z,21.72
2018-02-14T18:55:06.767Z,21.59
2018-02-14T18:57:34.127Z,21.61
2018-02-14T19:00:01.514Z,21.44
2018-02-14T19:02:28.873Z,21.38
2018-02-14T19:04:56.274Z,21.40
2018-02-14T19:07:23.629Z,21.30
2018-02-14T19:09:50.990Z,21.41
2018-02-14T19:12:18.361Z,21.32
2018-02-14T19:14:45.823Z,21.22
2018-02-14T19:17:13.217Z,20.93
2018-02-14T19:19:40.592Z,21.16
2018-02-14T19:22:07.943Z,21.15
2018-02-14T19:24:35.303Z,21.00
2018-02-14T19:27:02.673Z,21.13
2018-02-14T19:29:30.054Z,21.09
2018-02-14T19:31:57.409Z,20.98
2018-02-14T19:34:24.814Z,20.98
2018-02-14T19:36:52.211Z,21.03
2018-02-14T19:39:19.560Z,20.95
2018-02-14T19:41:46.919Z,20.63
2018-02-14T19:44:14.280Z,20.85
2018-02-14T19:46:41.706Z,20.92
2018-02-14T19:49:09.187Z,20.82
2018-02-14T19:51:36.579Z,20.76
2018-02-14T19:54:03.987Z,20.71
2018-02-14T19:56:31.392Z,20.78
2018-02-14T19:58:58.805Z,20.65
2018-02-14T20:01:26.309Z,20.76
2018-02-14T20:03:53.678Z,20.69
2018-02-14T20:06:21.034Z,20.69
2018-02-14T20:08:48.394Z,20.33
2018-02-14T20:11:15.805Z,20.62
2018-02-14T20:13:43.167Z,20.60
2018-02-14T20:16:10.532Z,20.20
2018-02-14T20:18:37.949Z,20.55
2018-02-14T20:21:05.346Z,20.30
2018-02-14T20:23:32.710Z,20.50
2018-02-14T20:26:00.099Z,20.59
2018-02-14T20:28:27.481Z,20.36
2018-02-14T20:30:54.847Z,20.50
2018-02-14T20:33:22.292Z,20.48
2018-02-14T20:35:49.758Z,20.44
2018-02-14T20:38:17.125Z,20.41
2018-02-14T20:40:44.579Z,20.35
2018-02-14T20:43:12.092Z,20.30
2018-02-14T20:45:39.432Z,20.25
2018-02-14T20:48:06.808Z,20.34
2018-02-14T20:50:34.223Z,20.29
2018-02-14T20:53:01.575Z,20.10
2018-02-14T20:55:28.965Z,20.21
2018-02-14T20:57:56.314Z,20.35
2018-02-14T21:00:23.676Z,20.26
2018-02-14T21:02:51.056Z,20.30
2018-02-14T21:05:18.428Z,20.17
2018-02-14T21:07:45.835Z,20.20
2018-02-14T21:10:13.197Z,20.18
2018-02-14T21:12:40.562Z,20.16
2018-02-14T21:15:07.975Z,20.11
2018-02-14T21:17:35.520Z,20.25
2018-02-14T21:20:02.912Z,20.08
2018-02-14T21:22:30.326Z,20.24
2018-02-14T21:24:57.688Z,20.15
2018-02-14T21:27:25.040Z,20.23
2018-02-14T21:29:52.396Z,20.09
2018-02-14T21:32:19.852Z,20.04
2018-02-14T21:34:47.276Z,20.07
2018-02-14T21:37:14.692Z,20.21
2018-02-14T21:39:42.114Z,20.03
2018-02-14T21:42:09.472Z,20.02
2018-02-14T21:44:36.839Z,20.09
2018-02-14T21:47:04.193Z,20.13
2018-02-14T21:49:31.570Z,20.17
2018-02-14T21:51:58.961Z,20.14
2018-02-14T21:54:26.298Z,19.95
2018-02-14T21:56:53.660Z,20.04
2018-02-14T21:59:21.012Z,20.09
2018-02-14T22:01:48.362Z,20.07
2018-02-14T22:04:15.790Z,20.08
2018-02-14T22:06:43.185Z,19.90
2018-02-14T22:09:10.545Z,20.05
2018-02-14T22:11:37.991Z,19.96
2018-02-14T22:14:05.370Z,19.92
2018-02-14T22:16:32.727Z,19.86
2018-02-14T22:19:00.091Z,20.00
2018-02-14T22:21:27.507Z,19.88
2018-02-14T22:23:54.875Z,20.00
2018-02-14T22:26:22.288Z,19.89
2018-02-14T22:28:49.638Z,19.85
2018-02-14T22:31:17.067Z,19.96
2018-02-14T22:33:44.435Z,19.90
2018-02-14T22:36:11.848Z,19.92
2018-02-14T22:38:39.229Z,19.90
2018-02-14T22:41:06.578Z,19.75
2018-02-14T22:43:33.956Z,19.88
2018-02-14T22:46:01.352Z,19.88
2018-02-14T22:48:28.768Z,19.87
2018-02-14T22:50:56.133Z,19.68
2018-02-14T22:53:23.564Z,19.79
2018-02-14T22:55:50.928Z,19.81
2018-02-14T22:58:18.328Z,19.82
2018-02-14T23:00:45.673Z,19.78
2018-02-14T23:03:13.068Z,19.63
2018-02-14T23:05:40.433Z,19.85
2018-02-14T23:08:07.829Z,19.82
2018-02-14T23:10:35.186Z,19.66
2018-02-14T23:13:02.607Z,19.63
2018-02-14T23:15:29.970Z,19.77
2018-02-14T23:17:57.377Z,19.68
2018-02-14T23:20:24.880Z,19.68
2018-02-14T23:22:52.239Z,19.70
2018-02-14T23:25:19.594Z,19.79
2018-02-14T23:27:46.946Z,19.46
2018-02-14T23:30:14.425Z,19.69
2018-02-14T23:32:41.770Z,19.57
2018-02-14T23:35:09.149Z,19.56
2018-02-14T23:37:36.570Z,19.73
2018-02-14T23:40:03.970Z,19.58
2018-02-14T23:42:31.377Z,19.56
2018-02-14T23:44:58.783Z,19.56
2018-02-14T23:47:26.142Z,19.55
2018-02-14T23:49:53.531Z,19.51
2018-02-14T23:52:20.936Z,19.57
2018-02-14T23:54:48.328Z,19.46
2018-02-14T23:57:15.697Z,19.67
2018-02-14T23:59:43.047Z,19.48
